createdAt,value
2018-08-23T00:00:43.792Z,4.90
2018-08-23T00:03:17.388Z,6.10
2018-08-23T00:05:52.735Z,6.13
2018-08-23T00:08:21.332Z,5.50
2018-08-23T00:10:52.067Z,5.53
2018-08-23T00:13:24.324Z,5.00
2018-08-23T00:15:52.494Z,8.00
2018-08-23T00:18:20.647Z,5.63
2018-08-23T00:20:48.600Z,5.00
2018-08-23T00:23:16.729Z,7.27
2018-08-23T00:25:44.910Z,4.80
2018-08-23T00:28:13.067Z,7.07
2018-08-23T00:30:43.160Z,4.27
2018-08-23T00:33:11.305Z,6.73
2018-08-23T00:35:39.508Z,5.90
2018-08-23T00:38:08.128Z,5.70
2018-08-23T00:40:37.005Z,7.00
2018-08-23T00:43:07.887Z,7.00
2018-08-23T00:45:36.053Z,5.47
2018-08-23T00:48:04.236Z,7.57
2018-08-23T00:50:53.095Z,8.07
2018-08-23T00:53:20.996Z,7.80
2018-08-23T00:56:00.377Z,6.70
2018-08-23T00:58:28.510Z,6.33
2018-08-23T01:01:04.909Z,8.77
2018-08-23T01:03:35.196Z,7.17
2018-08-23T01:06:03.658Z,9.40
2018-08-23T01:08:32.760Z,6.37
2018-08-23T01:11:05.848Z,6.93
2018-08-23T01:13:34.937Z,9.30
2018-08-23T01:16:03.224Z,7.50
2018-08-23T01:18:31.369Z,5.90
2018-08-23T01:21:07.640Z,8.13
2018-08-23T01:23:37.572Z,8.57
2018-08-23T01:26:06.437Z,12.73
2018-08-23T01:28:34.921Z,5.53
2018-08-23T01:31:20.027Z,6.83
2018-08-23T01:33:48.465Z,6.53
2018-08-23T01:36:20.964Z,5.97
2018-08-23T01:38:49.110Z,6.13
2018-08-23T01:41:17.228Z,6.33
2018-08-23T01:43:45.369Z,6.73
2018-08-23T01:46:13.489Z,7.97
2018-08-23T01:48:44.914Z,6.50
2018-08-23T01:51:13.068Z,9.00
2018-08-23T01:53:41.532Z,7.60
2018-08-23T01:56:09.644Z,6.80
2018-08-23T01:58:37.823Z,7.27
2018-08-23T02:01:13.876Z,6.40
2018-08-23T02:03:42.144Z,9.03
2018-08-23T02:06:10.280Z,8.20
2018-08-23T02:08:38.382Z,7.07
2018-08-23T02:11:06.589Z,9.73
2018-08-23T02:13:34.711Z,9.37
2018-08-23T02:16:03.504Z,6.90
2018-08-23T02:18:32.200Z,8.60
2018-08-23T02:21:05.661Z,9.03
2018-08-23T02:23:35.609Z,7.27
2018-08-23T02:26:03.714Z,9.23
2018-08-23T02:28:31.869Z,6.67
2018-08-23T02:30:59.976Z,7.63
2018-08-23T02:33:28.114Z,7.93
2018-08-23T02:36:22.221Z,8.13
2018-08-23T02:39:08.506Z,7.23
2018-08-23T02:41:36.636Z,10.60
2018-08-23T02:44:04.821Z,7.90
2018-08-23T02:46:33.220Z,7.00
2018-08-23T02:49:01.378Z,8.10
2018-08-23T02:51:41.300Z,7.53
2018-08-23T02:54:11.541Z,11.83
2018-08-23T02:56:39.663Z,8.53
2018-08-23T02:59:07.876Z,8.87
2018-08-23T03:01:40.649Z,7.40
2018-08-23T03:04:11.382Z,9.27
2018-08-23T03:06:57.624Z,8.37
2018-08-23T03:09:27.955Z,7.90
2018-08-23T03:11:58.065Z,9.30
2018-08-23T03:14:27.063Z,12.00
2018-08-23T03:17:35.273Z,11.17
2018-08-23T03:20:06.797Z,7.93
2018-08-23T03:22:35.265Z,9.17
2018-08-23T03:25:05.305Z,9.53
2018-08-23T03:27:33.474Z,9.90
2018-08-23T03:30:02.570Z,9.70
2018-08-23T03:32:30.885Z,7.53
2018-08-23T03:34:59.445Z,7.57
2018-08-23T03:37:27.596Z,10.57
2018-08-23T03:39:55.996Z,8.03
2018-08-23T03:42:24.355Z,7.23
2018-08-23T03:44:53.495Z,8.07
2018-08-23T03:47:21.876Z,7.40
2018-08-23T03:49:50.217Z,10.27
2018-08-23T03:52:19.580Z,9.87
2018-08-23T03:54:54.246Z,11.13
2018-08-23T03:57:22.428Z,7.93
2018-08-23T03:59:51.550Z,8.90
2018-08-23T04:02:20.964Z,10.40
2018-08-23T04:04:52.804Z,9.87
2018-08-23T04:07:21.034Z,6.90
2018-08-23T04:09:49.174Z,10.30
2018-08-23T04:12:17.305Z,10.63
2018-08-23T04:14:45.456Z,8.33
2018-08-23T04:17:13.578Z,9.50
2018-08-23T08:06:23.216Z,9.83
2018-08-23T08:08:51.876Z,10.57
2018-08-23T08:11:20.072Z,10.33
2018-08-23T08:13:52.603Z,10.40
2018-08-23T08:16:20.729Z,12.67
2018-08-23T08:18:48.867Z,12.77
2018-08-23T08:21:17.332Z,13.63
2018-08-23T08:23:50.894Z,20.80
2018-08-23T08:26:19.074Z,18.40
2018-08-23T08:28:47.497Z,17.17
2018-08-23T08:31:15.658Z,15.47
2018-08-23T08:33:43.837Z,11.87
2018-08-23T08:36:12.256Z,21.83
2018-08-23T08:38:40.437Z,12.07
2018-08-23T08:41:08.581Z,12.57
2018-08-23T08:43:36.729Z,15.97
2018-08-23T08:46:04.872Z,14.10
2018-08-23T08:48:34.845Z,14.33
2018-08-23T08:51:16.545Z,13.80
2018-08-23T08:53:45.000Z,12.97
2018-08-23T08:56:13.144Z,17.13
2018-08-23T08:58:42.012Z,16.23
2018-08-23T09:01:10.182Z,16.83
2018-08-23T09:03:38.785Z,18.23
2018-08-23T09:06:09.248Z,15.67
2018-08-23T09:08:38.225Z,21.50
2018-08-23T09:11:06.694Z,15.07
2018-08-23T09:13:40.115Z,17.53
2018-08-23T09:16:10.339Z,17.07
2018-08-23T09:18:41.643Z,19.43
2018-08-23T09:21:09.808Z,12.40
2018-08-23T09:23:37.961Z,13.97
2018-08-23T09:26:06.114Z,14.30
2018-08-23T09:28:34.255Z,17.30
2018-08-23T09:31:03.064Z,17.63
2018-08-23T09:33:31.248Z,15.90
2018-08-23T09:35:59.396Z,15.57
2018-08-23T09:38:27.567Z,14.23
2018-08-23T09:40:55.832Z,14.50
2018-08-23T09:43:24.024Z,11.63
2018-08-23T09:45:53.757Z,13.53
2018-08-23T09:48:21.909Z,12.73
2018-08-23T09:50:50.085Z,11.50
2018-08-23T09:53:25.156Z,14.80
2018-08-23T09:55:54.643Z,12.40
2018-08-23T09:58:28.160Z,12.87
2018-08-23T10:01:01.477Z,12.60
2018-08-23T10:03:35.089Z,11.60
2018-08-23T10:06:08.621Z,14.70
2018-08-23T10:08:42.258Z,12.77
2018-08-23T10:11:18.950Z,10.87
2018-08-23T10:13:52.433Z,9.43
2018-08-23T10:16:25.993Z,8.60
2018-08-23T10:18:57.313Z,10.90
2018-08-23T10:21:30.805Z,12.50
2018-08-23T10:24:05.977Z,10.17
2018-08-23T10:26:34.200Z,8.90
2018-08-23T10:29:02.393Z,11.93
2018-08-23T10:31:30.557Z,10.63
2018-08-23T10:33:58.964Z,12.37
2018-08-23T10:36:27.097Z,10.63
2018-08-23T10:38:55.290Z,8.37
2018-08-23T10:41:23.459Z,9.00
2018-08-23T10:43:51.665Z,10.87
2018-08-23T10:46:19.817Z,8.83
2018-08-23T10:48:47.976Z,8.90
2018-08-23T10:51:17.528Z,11.13
2018-08-23T10:53:45.708Z,10.73
2018-08-23T10:56:13.847Z,8.83
2018-08-23T10:58:41.992Z,11.00
2018-08-23T11:01:10.177Z,9.60
2018-08-23T11:03:38.818Z,8.73
2018-08-23T11:06:06.936Z,7.20
2018-08-23T11:08:36.567Z,8.33
2018-08-23T11:11:10.002Z,9.00
2018-08-23T11:13:43.525Z,8.43
2018-08-23T11:16:16.857Z,10.03
2018-08-23T11:18:50.194Z,8.23
2018-08-23T11:21:18.660Z,8.40
2018-08-23T11:23:47.224Z,11.33
2018-08-23T11:26:20.306Z,8.03
2018-08-23T11:28:48.980Z,8.10
2018-08-23T11:31:22.438Z,6.33
2018-08-23T11:33:50.713Z,9.67
2018-08-23T11:36:18.858Z,9.07
2018-08-23T11:38:47.024Z,6.93
2018-08-23T11:41:15.254Z,7.67
2018-08-23T11:43:43.391Z,7.30
2018-08-23T11:46:12.447Z,10.30
2018-08-23T11:48:40.984Z,6.57
2018-08-23T11:51:09.117Z,6.27
2018-08-23T11:53:37.593Z,5.40
2018-08-23T11:56:05.283Z,6.40
2018-08-23T11:58:33.467Z,8.27
2018-08-23T12:01:07.112Z,7.03
2018-08-23T12:03:35.295Z,8.90
2018-08-23T12:06:03.245Z,7.53
2018-08-23T12:08:31.160Z,4.67
2018-08-23T12:10:59.388Z,10.27
2018-08-23T12:13:27.316Z,5.20
2018-08-23T12:15:55.208Z,5.20
2018-08-23T12:18:23.109Z,6.37
2018-08-23T12:20:51.433Z,8.47
2018-08-23T12:23:19.347Z,5.63
2018-08-23T12:25:47.572Z,5.70
2018-08-23T12:28:20.878Z,9.07
2018-08-23T12:30:49.022Z,5.50
2018-08-23T12:33:17.170Z,6.30
2018-08-23T12:35:45.370Z,4.60
2018-08-23T12:38:20.861Z,3.93
2018-08-23T12:40:54.440Z,3.77
2018-08-23T12:43:27.938Z,4.53
2018-08-23T12:46:00.647Z,6.83
2018-08-23T12:48:28.896Z,3.10
2018-08-23T12:50:57.473Z,5.00
2018-08-23T12:53:27.423Z,5.27
2018-08-23T12:55:55.537Z,3.33
2018-08-23T12:58:23.986Z,2.83
2018-08-23T13:00:52.141Z,4.30
2018-08-23T13:03:20.284Z,3.67
2018-08-23T13:05:48.504Z,2.47
2018-08-23T13:08:16.682Z,2.20
2018-08-23T13:10:44.817Z,2.10
2018-08-23T13:13:12.988Z,2.93
2018-08-23T13:15:41.141Z,3.97
2018-08-23T13:18:09.284Z,2.27
2018-08-23T13:20:37.483Z,2.37
2018-08-23T13:23:05.728Z,2.30
2018-08-23T13:25:33.866Z,3.90
2018-08-23T13:28:02.082Z,2.00
2018-08-23T13:30:30.200Z,3.50
2018-08-23T13:32:58.461Z,2.50
2018-08-23T13:35:26.653Z,2.10
2018-08-23T13:37:54.769Z,2.47
2018-08-23T13:40:22.947Z,2.47
2018-08-23T13:42:51.364Z,2.27
2018-08-23T13:45:19.585Z,1.90
2018-08-23T13:47:47.665Z,2.53
2018-08-23T13:50:15.855Z,2.10
2018-08-23T13:52:44.059Z,2.10
2018-08-23T13:55:12.279Z,2.93
2018-08-23T13:57:40.416Z,1.70
2018-08-23T14:00:12.832Z,5.97
2018-08-23T14:02:41.068Z,2.40
2018-08-23T14:05:09.145Z,3.53
2018-08-23T14:07:37.961Z,1.80
2018-08-23T14:10:06.408Z,3.73
2018-08-23T14:12:34.522Z,3.60
2018-08-23T14:15:02.629Z,2.00
2018-08-23T14:17:30.994Z,4.60
2018-08-23T14:19:59.113Z,3.43
2018-08-23T14:22:27.270Z,2.87
2018-08-23T14:24:55.985Z,2.00
2018-08-23T14:27:24.113Z,3.03
2018-08-23T14:29:52.224Z,3.03
2018-08-23T14:32:20.358Z,3.33
2018-08-23T14:34:48.472Z,3.40
2018-08-23T14:37:16.591Z,2.83
2018-08-23T14:39:44.717Z,2.43
2018-08-23T14:42:13.130Z,3.07
2018-08-23T14:44:41.248Z,6.87
2018-08-23T14:47:14.705Z,2.33
2018-08-23T14:49:42.876Z,2.27
2018-08-23T14:52:11.000Z,2.77
2018-08-23T14:54:43.309Z,4.30
2018-08-23T14:57:16.869Z,4.67
2018-08-23T14:59:45.491Z,2.47
2018-08-23T15:02:13.770Z,4.17
2018-08-23T15:04:47.751Z,3.20
2018-08-23T15:07:16.329Z,4.03
2018-08-23T15:09:44.634Z,2.50
2018-08-23T15:12:12.732Z,3.43
2018-08-23T15:14:40.872Z,3.57
2018-08-23T15:17:09.653Z,5.30
2018-08-23T15:19:37.920Z,2.10
2018-08-23T15:22:06.414Z,2.23
2018-08-23T15:24:34.495Z,2.27
2018-08-23T15:27:02.805Z,3.37
2018-08-23T15:29:31.641Z,4.07
2018-08-23T15:31:59.753Z,2.60
2018-08-23T15:34:27.880Z,3.20
2018-08-23T15:36:55.978Z,3.63
2018-08-23T15:39:24.134Z,2.97
2018-08-23T15:41:52.216Z,2.33
2018-08-23T15:44:20.316Z,3.27
2018-08-23T15:46:49.132Z,2.63
2018-08-23T15:49:17.568Z,4.47
2018-08-23T15:51:45.890Z,4.00
2018-08-23T15:54:17.781Z,4.57
2018-08-23T15:56:45.905Z,4.43
2018-08-23T15:59:14.174Z,2.60
2018-08-23T16:01:42.284Z,3.77
2018-08-23T16:04:10.592Z,2.43
2018-08-23T16:06:38.713Z,3.33
2018-08-23T16:09:08.501Z,2.47
2018-08-23T16:11:36.779Z,3.87
2018-08-23T16:14:04.928Z,4.90
2018-08-23T16:16:38.460Z,2.13
2018-08-23T16:19:11.936Z,2.10
2018-08-23T16:21:40.468Z,2.53
2018-08-23T16:24:08.745Z,2.40
2018-08-23T16:26:42.282Z,4.13
2018-08-23T16:29:10.673Z,3.33
2018-08-23T16:31:38.820Z,5.90
2018-08-23T16:34:06.954Z,3.13
2018-08-23T16:36:35.104Z,3.43
2018-08-23T16:39:03.299Z,2.67
2018-08-23T16:41:31.434Z,3.03
2018-08-23T16:43:59.642Z,3.47
2018-08-23T16:46:27.785Z,2.23
2018-08-23T16:48:55.905Z,4.67
2018-08-23T16:51:24.401Z,3.90
2018-08-23T16:53:52.554Z,4.17
2018-08-23T16:56:20.772Z,5.63
2018-08-23T16:58:49.514Z,3.13
2018-08-23T17:01:17.914Z,5.83
2018-08-23T17:03:51.518Z,4.87
2018-08-23T17:06:19.661Z,2.57
2018-08-23T17:08:47.832Z,5.90
2018-08-23T17:11:16.041Z,3.73
2018-08-23T17:13:44.168Z,5.97
2018-08-23T17:18:21.703Z,2.53
2018-08-23T17:20:49.785Z,6.33
2018-08-23T17:23:18.040Z,3.03
2018-08-23T17:25:46.304Z,2.77
2018-08-23T17:28:14.575Z,3.80
2018-08-23T17:30:42.769Z,3.23
2018-08-23T17:33:10.982Z,3.80
2018-08-23T17:35:39.104Z,2.90
2018-08-23T17:38:07.233Z,2.33
2018-08-23T17:40:35.425Z,3.40
2018-08-23T17:43:03.821Z,3.60
2018-08-23T17:45:31.933Z,3.50
2018-08-23T17:48:00.061Z,3.90
2018-08-23T17:50:28.240Z,4.57
2018-08-23T17:52:56.184Z,5.20
2018-08-23T17:55:24.330Z,4.40
2018-08-23T17:57:52.560Z,5.07
2018-08-23T18:00:20.688Z,3.17
2018-08-23T18:02:48.853Z,2.27
2018-08-23T18:05:16.979Z,5.83
2018-08-23T18:07:45.119Z,5.47
2018-08-23T18:10:13.295Z,5.03
2018-08-23T18:12:41.808Z,3.10
2018-08-23T18:15:10.236Z,5.80
2018-08-23T18:17:39.571Z,3.33
2018-08-23T18:20:07.805Z,2.67
2018-08-23T18:22:36.320Z,5.13
2018-08-23T18:25:04.538Z,4.70
2018-08-23T18:27:32.752Z,3.70
2018-08-23T18:30:00.932Z,4.80
2018-08-23T18:32:29.149Z,4.77
2018-08-23T18:34:57.314Z,3.10
2018-08-23T18:37:25.504Z,3.40
2018-08-23T18:39:53.571Z,3.23
2018-08-23T18:42:21.792Z,4.57
2018-08-23T18:44:49.983Z,5.30
2018-08-23T18:47:18.114Z,3.00
2018-08-23T18:49:46.332Z,6.43
2018-08-23T18:52:14.495Z,3.77
2018-08-23T18:54:42.694Z,4.70
2018-08-23T18:57:10.805Z,4.20
2018-08-23T18:59:38.936Z,9.37
2018-08-23T19:02:07.145Z,19.23
2018-08-23T19:04:35.271Z,12.63
2018-08-23T19:07:03.455Z,9.00
2018-08-23T19:09:31.594Z,6.90
2018-08-23T19:11:59.742Z,3.80
2018-08-23T19:14:28.165Z,4.73
2018-08-23T19:17:01.573Z,5.53
2018-08-23T19:19:30.449Z,3.13
2018-08-23T19:21:58.598Z,4.43
2018-08-23T19:24:26.770Z,7.73
2018-08-23T19:26:54.904Z,3.93
2018-08-23T19:29:23.069Z,4.23
2018-08-23T19:31:51.224Z,5.00
2018-08-23T19:34:19.380Z,3.80
2018-08-23T19:36:47.581Z,2.73
2018-08-23T19:39:15.746Z,2.87
2018-08-23T19:41:43.888Z,5.10
2018-08-23T19:44:12.020Z,4.33
2018-08-23T19:46:45.632Z,5.10
2018-08-23T19:49:19.114Z,2.80
2018-08-23T19:51:47.690Z,2.47
2018-08-23T19:54:15.835Z,2.53
2018-08-23T19:56:44.037Z,4.23
2018-08-23T19:59:12.184Z,2.40
2018-08-23T20:01:40.373Z,2.23
2018-08-23T20:04:09.565Z,3.67
2018-08-23T20:06:37.855Z,2.30
2018-08-23T20:09:07.652Z,9.53
2018-08-23T20:11:35.861Z,2.97
2018-08-23T20:14:04.028Z,3.30
2018-08-23T20:16:52.932Z,3.33
2018-08-23T20:19:21.074Z,4.33
2018-08-23T20:21:49.438Z,4.53
2018-08-23T20:24:17.642Z,4.23
2018-08-23T20:26:45.843Z,6.50
2018-08-23T20:29:13.968Z,3.80
2018-08-23T20:31:43.152Z,5.00
2018-08-23T20:34:11.284Z,4.37
2018-08-23T20:36:39.200Z,4.00
2018-08-23T20:39:09.482Z,3.13
2018-08-23T20:41:37.464Z,5.30
2018-08-23T20:44:05.368Z,4.07
2018-08-23T20:46:33.324Z,3.57
2018-08-23T20:49:01.288Z,2.40
2018-08-23T20:51:29.761Z,4.77
2018-08-23T20:53:57.653Z,3.07
2018-08-23T20:56:25.672Z,3.77
2018-08-23T20:58:53.564Z,5.53
2018-08-23T21:01:21.474Z,4.87
2018-08-23T21:03:49.438Z,4.20
2018-08-23T21:06:17.446Z,4.97
2018-08-23T21:08:45.328Z,4.73
2018-08-23T21:11:13.579Z,5.97
2018-08-23T21:13:41.584Z,5.07
2018-08-23T21:16:09.474Z,4.57
2018-08-23T21:18:37.648Z,3.67
2018-08-23T21:21:05.612Z,7.13
2018-08-23T21:23:34.260Z,3.00
2018-08-23T21:26:02.176Z,4.20
2018-08-23T21:28:30.068Z,8.67
2018-08-23T21:30:57.984Z,7.27
2018-08-23T21:33:26.309Z,5.57
2018-08-23T21:35:54.294Z,5.93
2018-08-23T21:38:22.188Z,7.97
2018-08-23T21:40:50.108Z,5.30
2018-08-23T21:43:18.028Z,6.73
2018-08-23T21:45:46.285Z,5.50
2018-08-23T21:48:14.264Z,8.50
2018-08-23T21:50:42.262Z,6.47
2018-08-23T21:53:10.292Z,3.97
2018-08-23T21:55:39.225Z,5.37
2018-08-23T21:58:09.292Z,6.60
2018-08-23T22:00:42.712Z,11.57
2018-08-23T22:03:11.622Z,6.80
2018-08-23T22:05:39.980Z,5.43
2018-08-23T22:08:07.921Z,7.87
2018-08-23T22:10:35.849Z,4.03
2018-08-23T22:13:03.800Z,3.23
2018-08-23T22:15:31.760Z,4.80
2018-08-23T22:17:59.996Z,4.60
2018-08-23T22:20:27.900Z,6.00
2018-08-23T22:22:55.835Z,3.40
2018-08-23T22:25:23.761Z,4.77
2018-08-23T22:27:51.704Z,4.33
2018-08-23T22:30:19.920Z,5.63
2018-08-23T22:32:47.847Z,4.07
2018-08-23T22:35:15.743Z,5.87
2018-08-23T22:37:43.688Z,4.20
2018-08-23T22:40:11.657Z,4.27
2018-08-23T22:42:39.616Z,2.97
2018-08-23T22:45:07.540Z,3.70
2018-08-23T22:47:35.439Z,3.63
2018-08-23T22:50:03.444Z,2.73
2018-08-23T22:52:31.392Z,2.90
2018-08-23T22:54:59.355Z,6.60
2018-08-23T22:57:27.583Z,4.17
2018-08-23T22:59:55.472Z,5.63
2018-08-23T23:02:28.795Z,3.20
2018-08-23T23:04:57.081Z,3.93
2018-08-23T23:07:24.973Z,8.77
2018-08-23T23:09:52.875Z,5.63
2018-08-23T23:12:20.760Z,5.20
2018-08-23T23:14:48.721Z,3.10
2018-08-23T23:17:16.625Z,4.30
2018-08-23T23:19:44.578Z,4.43
2018-08-23T23:22:12.504Z,4.40
2018-08-23T23:24:45.836Z,4.27
2018-08-23T23:27:13.834Z,5.20
2018-08-23T23:29:41.776Z,4.73
2018-08-23T23:32:09.680Z,2.90
2018-08-23T23:34:37.639Z,3.53
2018-08-23T23:37:05.699Z,3.57
2018-08-23T23:39:33.598Z,4.33
2018-08-23T23:42:01.545Z,3.80
2018-08-23T23:44:29.504Z,6.77
2018-08-23T23:46:57.317Z,3.30
2018-08-23T23:49:25.229Z,3.17
2018-08-23T23:51:53.136Z,4.43
2018-08-23T23:54:21.019Z,4.77
2018-08-23T23:56:49.157Z,7.10
2018-08-23T23:59:17.063Z,4.43
